createdAt,value
2023-01-06T00:00:15.167Z,79.14
2023-01-06T00:02:17.881Z,79.69
2023-01-06T00:04:20.549Z,79.00
2023-01-06T00:06:27.822Z,78.90
2023-01-06T00:08:31.509Z,79.83
2023-01-06T00:10:34.147Z,79.21
2023-01-06T00:12:37.084Z,79.58
2023-01-06T00:14:39.805Z,79.28
2023-01-06T00:16:42.522Z,79.56
2023-01-06T00:18:46.123Z,79.69
2023-01-06T00:20:48.766Z,80.02
2023-01-06T00:22:51.468Z,80.05
2023-01-06T00:24:54.218Z,80.43
2023-01-06T00:26:56.852Z,80.99
2023-01-06T00:28:59.466Z,80.93
2023-01-06T00:31:13.890Z,81.06
2023-01-06T00:33:16.619Z,81.59
2023-01-06T00:35:19.537Z,81.15
2023-01-06T00:37:22.194Z,80.86
2023-01-06T00:39:24.919Z,80.77
2023-01-06T00:41:46.140Z,80.51
2023-01-06T00:43:49.470Z,79.96
2023-01-06T00:45:52.129Z,80.08
2023-01-06T00:47:54.820Z,79.88
2023-01-06T00:49:57.456Z,80.25
2023-01-06T00:52:00.160Z,80.75
2023-01-06T00:54:02.850Z,80.65
2023-01-06T00:56:05.898Z,80.85
2023-01-06T00:58:08.509Z,80.45
2023-01-06T01:00:11.867Z,80.39
2023-01-06T01:02:14.682Z,80.69
2023-01-06T01:04:18.170Z,80.77
2023-01-06T01:06:20.889Z,80.98
2023-01-06T01:08:23.721Z,80.89
2023-01-06T01:10:26.376Z,80.79
2023-01-06T01:12:29.008Z,81.14
2023-01-06T01:14:31.726Z,81.43
2023-01-06T01:16:34.539Z,82.00
2023-01-06T01:18:37.188Z,81.70
2023-01-06T01:20:39.791Z,82.17
2023-01-06T01:22:42.476Z,82.22
2023-01-06T01:24:45.150Z,82.33
2023-01-06T01:26:47.942Z,82.02
2023-01-06T01:28:50.826Z,82.26
2023-01-06T01:31:01.047Z,82.14
2023-01-06T01:33:03.794Z,81.52
2023-01-06T01:35:06.847Z,81.08
2023-01-06T01:37:09.561Z,80.94
2023-01-06T01:39:14.230Z,80.90
2023-01-06T01:41:19.548Z,80.93
2023-01-06T01:43:22.242Z,80.48
2023-01-06T01:45:26.540Z,80.69
2023-01-06T01:47:49.873Z,80.61
2023-01-06T01:49:56.198Z,80.66
2023-01-06T01:51:58.954Z,80.83
2023-01-06T01:54:06.076Z,81.22
2023-01-06T01:56:11.413Z,81.08
2023-01-06T01:58:24.048Z,81.00
2023-01-06T02:00:26.709Z,80.94
2023-01-06T02:02:31.972Z,80.60
2023-01-06T02:04:39.671Z,80.54
2023-01-06T02:06:42.551Z,80.89
2023-01-06T02:08:52.045Z,81.17
2023-01-06T02:10:54.929Z,81.60
2023-01-06T02:13:00.034Z,81.65
2023-01-06T02:15:28.687Z,81.79
2023-01-06T02:18:03.225Z,81.76
2023-01-06T02:20:37.998Z,82.46
2023-01-06T02:23:17.492Z,82.39
2023-01-06T02:25:32.319Z,81.91
2023-01-06T02:28:14.959Z,82.29
2023-01-06T02:30:41.909Z,82.35
2023-01-06T02:33:07.465Z,82.25
2023-01-06T02:35:32.119Z,82.44
2023-01-06T02:37:56.136Z,82.15
2023-01-06T02:40:35.952Z,81.25
2023-01-06T02:42:56.940Z,81.65
2023-01-06T02:45:22.336Z,81.57
2023-01-06T02:47:35.405Z,81.28
2023-01-06T02:49:53.144Z,81.15
2023-01-06T02:52:19.829Z,81.21
2023-01-06T02:54:40.369Z,81.24
2023-01-06T02:57:02.502Z,81.25
2023-01-06T02:59:16.047Z,81.28
2023-01-06T03:01:29.297Z,81.40
2023-01-06T03:03:36.454Z,80.91
2023-01-06T03:05:42.179Z,80.99
2023-01-06T03:07:47.275Z,81.23
2023-01-06T03:09:53.179Z,81.10
2023-01-06T03:11:55.810Z,81.16
2023-01-06T03:14:12.651Z,81.36
2023-01-06T03:16:16.577Z,80.95
2023-01-06T03:18:19.631Z,81.25
2023-01-06T03:20:22.332Z,81.45
2023-01-06T03:22:25.763Z,81.38
2023-01-06T03:24:29.064Z,80.90
2023-01-06T03:26:32.163Z,81.15
2023-01-06T03:28:34.899Z,80.57
2023-01-06T03:31:00.090Z,80.53
2023-01-06T03:33:33.979Z,80.32
2023-01-06T03:35:50.647Z,79.86
2023-01-06T03:38:20.435Z,79.77
2023-01-06T03:40:41.331Z,79.35
2023-01-06T03:43:25.800Z,79.56
2023-01-06T03:46:05.523Z,79.05
2023-01-06T03:48:41.271Z,78.91
2023-01-06T03:51:04.329Z,78.68
2023-01-06T03:53:32.885Z,78.78
2023-01-06T03:55:38.579Z,78.97
2023-01-06T03:57:49.049Z,79.15
2023-01-06T03:59:58.986Z,79.18
2023-01-06T04:02:02.974Z,79.76
2023-01-06T04:04:05.689Z,79.91
2023-01-06T04:06:08.330Z,79.75
2023-01-06T04:08:11.106Z,79.61
2023-01-06T04:10:15.156Z,80.16
2023-01-06T04:12:36.354Z,79.92
2023-01-06T04:14:39.176Z,79.59
2023-01-06T04:16:41.761Z,79.13
2023-01-06T04:18:45.900Z,79.57
2023-01-06T04:20:50.542Z,78.89
2023-01-06T04:22:54.681Z,78.93
2023-01-06T04:24:57.652Z,78.71
2023-01-06T04:27:00.361Z,78.65
2023-01-06T04:29:03.129Z,79.13
2023-01-06T04:31:05.894Z,78.80
2023-01-06T04:33:08.553Z,79.01
2023-01-06T04:35:11.853Z,78.42
2023-01-06T04:37:14.504Z,78.92
2023-01-06T04:39:17.204Z,78.59
2023-01-06T04:41:21.031Z,78.36
2023-01-06T04:43:24.375Z,78.49
2023-01-06T04:45:26.999Z,78.66
2023-01-06T04:47:29.629Z,79.15
2023-01-06T04:49:32.288Z,78.98
2023-01-06T04:51:35.194Z,78.99
2023-01-06T04:53:40.504Z,78.34
2023-01-06T04:55:43.146Z,78.63
2023-01-06T04:57:45.881Z,79.00
2023-01-06T04:59:48.508Z,78.42
2023-01-06T05:01:51.189Z,79.35
2023-01-06T05:03:55.831Z,79.48
2023-01-06T05:06:04.694Z,79.44
2023-01-06T05:08:07.954Z,79.29
2023-01-06T05:10:12.243Z,79.45
2023-01-06T05:12:15.239Z,79.65
2023-01-06T05:14:19.497Z,79.08
2023-01-06T05:16:26.980Z,79.70
2023-01-06T05:18:29.656Z,79.77
2023-01-06T05:20:32.236Z,79.32
2023-01-06T05:22:34.845Z,79.59
2023-01-06T05:24:37.751Z,78.66
2023-01-06T05:26:40.488Z,78.41
2023-01-06T05:28:43.311Z,78.36
2023-01-06T05:30:45.880Z,78.29
2023-01-06T05:32:48.476Z,77.84
2023-01-06T05:34:51.292Z,77.71
2023-01-06T05:36:53.985Z,77.88
2023-01-06T05:38:56.576Z,77.13
2023-01-06T05:40:59.348Z,77.13
2023-01-06T05:43:02.017Z,77.11
2023-01-06T05:45:04.915Z,77.14
2023-01-06T05:47:07.932Z,76.88
2023-01-06T05:49:10.703Z,76.18
2023-01-06T05:51:14.860Z,76.37
2023-01-06T05:53:17.593Z,76.15
2023-01-06T05:55:20.472Z,76.31
2023-01-06T05:57:23.069Z,76.42
2023-01-06T05:59:25.781Z,75.61
2023-01-06T06:01:34.067Z,75.77
2023-01-06T06:03:38.352Z,75.43
2023-01-06T06:05:42.116Z,75.65
2023-01-06T06:07:44.773Z,75.91
2023-01-06T06:09:47.420Z,75.34
2023-01-06T06:11:52.140Z,75.42
2023-01-06T06:13:56.869Z,75.04
2023-01-06T06:16:12.067Z,75.24
2023-01-06T06:18:14.722Z,75.16
2023-01-06T06:20:17.443Z,75.45
2023-01-06T06:22:20.189Z,74.73
2023-01-06T06:24:22.953Z,74.86
2023-01-06T06:26:25.981Z,75.01
2023-01-06T06:28:31.539Z,74.53
2023-01-06T06:30:34.239Z,74.09
2023-01-06T06:32:36.904Z,74.35
2023-01-06T06:34:39.609Z,74.08
2023-01-06T06:36:44.040Z,73.67
2023-01-06T06:38:48.754Z,73.82
2023-01-06T06:40:51.587Z,73.87
2023-01-06T06:42:54.309Z,73.39
2023-01-06T06:44:57.780Z,73.30
2023-01-06T06:47:00.772Z,73.21
2023-01-06T06:49:03.990Z,73.19
2023-01-06T06:51:09.573Z,72.92
2023-01-06T06:53:12.341Z,73.00
2023-01-06T06:55:15.026Z,72.99
2023-01-06T06:57:17.637Z,72.65
2023-01-06T06:59:20.279Z,72.48
2023-01-06T07:01:23.225Z,72.36
2023-01-06T07:03:25.949Z,72.06
2023-01-06T07:05:29.666Z,72.01
2023-01-06T07:07:32.329Z,72.14
2023-01-06T07:09:35.019Z,72.02
2023-01-06T07:11:37.700Z,71.95
2023-01-06T07:13:40.602Z,71.74
2023-01-06T07:15:43.456Z,71.46
2023-01-06T07:17:46.260Z,71.02
2023-01-06T07:19:48.981Z,71.21
2023-01-06T07:21:51.737Z,71.09
2023-01-06T07:23:54.425Z,71.20
2023-01-06T07:25:59.888Z,71.23
2023-01-06T07:28:07.260Z,70.89
2023-01-06T07:30:10.855Z,70.80
2023-01-06T07:32:13.683Z,70.65
2023-01-06T07:34:16.316Z,70.20
2023-01-06T07:36:19.121Z,70.73
2023-01-06T07:38:22.561Z,70.69
2023-01-06T07:40:25.289Z,70.32
2023-01-06T07:42:28.421Z,70.66
2023-01-06T07:44:31.838Z,71.05
2023-01-06T07:46:35.130Z,70.63
2023-01-06T07:48:38.331Z,70.50
2023-01-06T07:50:41.245Z,70.10
2023-01-06T07:52:46.946Z,70.18
2023-01-06T07:54:49.799Z,70.00
2023-01-06T07:56:52.643Z,69.30
2023-01-06T07:58:55.304Z,69.44
2023-01-06T08:00:57.970Z,69.92
2023-01-06T08:03:05.057Z,69.78
2023-01-06T08:05:08.192Z,69.21
2023-01-06T08:07:10.819Z,69.53
2023-01-06T08:09:13.395Z,69.91
2023-01-06T08:11:16.071Z,69.62
2023-01-06T08:13:20.438Z,69.13
2023-01-06T08:15:23.259Z,68.90
2023-01-06T08:17:25.875Z,68.29
2023-01-06T08:19:28.503Z,69.03
2023-01-06T08:21:31.145Z,69.12
2023-01-06T08:23:34.583Z,69.35
2023-01-06T08:25:37.237Z,68.93
2023-01-06T08:27:39.885Z,69.51
2023-01-06T08:29:42.572Z,69.41
2023-01-06T08:31:45.446Z,69.27
2023-01-06T08:33:49.472Z,69.32
2023-01-06T08:35:58.543Z,68.52
2023-01-06T08:38:01.206Z,69.17
2023-01-06T08:40:04.570Z,69.11
2023-01-06T08:42:07.796Z,68.87
2023-01-06T08:44:10.644Z,68.70
2023-01-06T08:46:16.542Z,67.61
2023-01-06T08:48:19.410Z,68.03
2023-01-06T08:50:22.034Z,68.12
2023-01-06T08:52:24.885Z,67.48
2023-01-06T08:54:29.367Z,67.31
2023-01-06T08:56:32.745Z,67.21
2023-01-06T08:58:35.514Z,67.57
2023-01-06T09:00:41.524Z,67.09
2023-01-06T09:02:44.102Z,67.44
2023-01-06T09:04:49.422Z,67.80
2023-01-06T09:06:52.168Z,66.73
2023-01-06T09:08:55.990Z,66.33
2023-01-06T09:10:58.772Z,66.66
2023-01-06T09:13:01.370Z,65.57
2023-01-06T09:15:04.874Z,65.80
2023-01-06T09:17:07.572Z,65.82
2023-01-06T09:19:10.987Z,65.68
2023-01-06T09:21:13.688Z,66.08
2023-01-06T09:23:16.516Z,66.17
2023-01-06T09:25:21.265Z,65.68
2023-01-06T09:27:24.408Z,66.50
2023-01-06T09:29:27.035Z,66.45
2023-01-06T09:31:30.261Z,65.94
2023-01-06T09:33:33.579Z,66.40
2023-01-06T09:35:36.383Z,66.29
2023-01-06T09:37:39.061Z,65.80
2023-01-06T09:39:41.824Z,66.08
2023-01-06T09:42:30.575Z,65.49
2023-01-06T09:44:41.366Z,66.21
2023-01-06T09:46:48.998Z,65.64
2023-01-06T09:49:10.456Z,65.56
2023-01-06T09:51:21.372Z,65.30
2023-01-06T09:53:34.843Z,65.81
2023-01-06T09:55:49.592Z,65.06
2023-01-06T09:58:18.118Z,65.40
2023-01-06T10:00:37.447Z,65.28
2023-01-06T10:02:41.528Z,65.56
2023-01-06T10:04:44.197Z,65.31
2023-01-06T10:06:57.649Z,65.43
2023-01-06T10:09:18.805Z,65.50
2023-01-06T10:11:45.883Z,65.81
2023-01-06T10:14:11.451Z,65.67
2023-01-06T10:16:36.922Z,65.25
2023-01-06T10:18:57.916Z,65.84
2023-01-06T10:21:17.941Z,65.27
2023-01-06T10:23:44.763Z,66.18
2023-01-06T10:25:53.956Z,66.40
2023-01-06T10:28:30.137Z,65.74
2023-01-06T10:30:43.769Z,65.64
2023-01-06T10:32:49.789Z,65.92
2023-01-06T10:34:52.804Z,66.03
2023-01-06T10:37:10.827Z,66.27
2023-01-06T10:39:18.488Z,66.48
2023-01-06T10:41:47.477Z,66.13
2023-01-06T10:43:50.154Z,66.57
2023-01-06T10:45:54.176Z,66.48
2023-01-06T10:47:57.551Z,67.04
2023-01-06T10:50:00.848Z,66.53
2023-01-06T10:52:04.258Z,66.89
2023-01-06T10:54:33.841Z,67.04
2023-01-06T10:56:39.047Z,66.46
2023-01-06T10:58:54.319Z,68.00
2023-01-06T11:01:12.176Z,67.44
2023-01-06T11:03:32.339Z,67.38
2023-01-06T11:05:36.095Z,67.36
2023-01-06T11:07:50.121Z,67.28
2023-01-06T11:09:52.830Z,67.30
2023-01-06T11:11:58.307Z,66.91
2023-01-06T11:14:05.701Z,67.31
2023-01-06T11:16:29.905Z,67.42
2023-01-06T11:18:35.559Z,67.91
2023-01-06T11:20:38.559Z,67.23
2023-01-06T11:22:43.093Z,67.22
2023-01-06T11:24:54.702Z,67.68
2023-01-06T11:27:01.453Z,67.85
2023-01-06T11:29:18.684Z,67.73
2023-01-06T11:31:28.567Z,67.64
2023-01-06T11:33:34.268Z,68.03
2023-01-06T11:35:37.079Z,68.44
2023-01-06T11:37:42.292Z,68.10
2023-01-06T11:39:49.122Z,68.15
2023-01-06T11:41:56.807Z,68.77
2023-01-06T11:44:10.464Z,68.96
2023-01-06T11:46:15.498Z,68.30
2023-01-06T11:48:22.831Z,67.58
2023-01-06T11:50:25.492Z,67.24
2023-01-06T11:52:33.512Z,67.24
2023-01-06T11:54:39.474Z,67.71
2023-01-06T11:56:42.219Z,67.44
2023-01-06T11:58:44.807Z,67.29
2023-01-06T12:00:57.158Z,67.72
2023-01-06T12:03:03.538Z,68.13
2023-01-06T12:05:17.641Z,68.10
2023-01-06T12:07:33.331Z,68.36
2023-01-06T12:09:41.903Z,68.78
2023-01-06T12:11:57.133Z,68.57
2023-01-06T12:14:27.370Z,68.93
2023-01-06T12:16:35.992Z,68.44
2023-01-06T12:18:41.653Z,68.90
2023-01-06T12:20:49.782Z,69.11
2023-01-06T12:22:57.501Z,68.91
2023-01-06T12:25:01.942Z,68.83
2023-01-06T12:27:07.270Z,68.90
2023-01-06T12:29:17.878Z,68.66
2023-01-06T12:31:45.341Z,68.31
2023-01-06T12:33:51.233Z,69.18
2023-01-06T12:35:57.647Z,68.67
2023-01-06T12:38:09.710Z,69.21
2023-01-06T12:40:24.699Z,69.07
2023-01-06T12:42:56.039Z,69.13
2023-01-06T12:45:20.721Z,69.52
2023-01-06T12:47:58.617Z,69.79
2023-01-06T12:50:07.225Z,70.01
2023-01-06T12:52:18.351Z,70.16
2023-01-06T12:54:33.025Z,70.50
2023-01-06T12:56:59.924Z,70.13
2023-01-06T12:59:20.506Z,69.77
2023-01-06T13:01:47.715Z,70.32
2023-01-06T13:03:53.349Z,70.26
2023-01-06T13:06:12.368Z,70.64
2023-01-06T13:08:53.586Z,70.65
2023-01-06T13:11:35.098Z,71.08
2023-01-06T13:13:44.053Z,70.40
2023-01-06T13:15:47.081Z,70.95
2023-01-06T13:18:05.979Z,70.80
2023-01-06T13:20:20.476Z,71.17
2023-01-06T13:22:35.671Z,71.04
2023-01-06T13:24:57.159Z,71.09
2023-01-06T13:27:31.256Z,71.09
2023-01-06T13:30:15.463Z,71.77
2023-01-06T13:32:40.904Z,71.51
2023-01-06T13:34:52.826Z,71.49
2023-01-06T13:37:13.573Z,71.71
2023-01-06T13:39:33.051Z,71.68
2023-01-06T13:41:39.956Z,71.81
2023-01-06T13:43:45.489Z,71.96
2023-01-06T13:45:54.336Z,72.65
2023-01-06T13:48:00.872Z,72.33
2023-01-06T13:50:06.099Z,72.25
2023-01-06T13:52:23.206Z,72.36
2023-01-06T13:54:40.965Z,72.50
2023-01-06T13:56:43.613Z,72.61
2023-01-06T13:58:47.256Z,72.61
2023-01-06T14:01:09.666Z,73.10
2023-01-06T14:03:24.322Z,72.60
2023-01-06T14:05:30.029Z,72.39
2023-01-06T14:07:38.950Z,72.35
2023-01-06T14:09:48.990Z,72.14
2023-01-06T14:11:51.883Z,72.50
2023-01-06T14:14:03.956Z,72.27
2023-01-06T14:16:14.127Z,72.25
2023-01-06T14:18:35.330Z,72.84
2023-01-06T14:20:40.333Z,73.05
2023-01-06T14:22:42.932Z,73.05
2023-01-06T14:24:58.086Z,72.49
2023-01-06T14:27:08.942Z,73.27
2023-01-06T14:29:56.487Z,73.17
2023-01-06T14:31:59.205Z,73.14
2023-01-06T14:34:03.543Z,73.01
2023-01-06T14:36:15.054Z,73.29
2023-01-06T14:38:25.076Z,73.23
2023-01-06T14:40:31.769Z,73.03
2023-01-06T14:42:42.235Z,73.77
2023-01-06T14:44:48.652Z,73.39
2023-01-06T14:46:55.464Z,73.68
2023-01-06T14:49:05.321Z,73.52
2023-01-06T14:51:13.696Z,73.40
2023-01-06T14:53:24.993Z,73.18
2023-01-06T14:55:31.642Z,73.17
2023-01-06T14:57:39.455Z,73.35
2023-01-06T14:59:41.972Z,73.26
2023-01-06T15:01:54.283Z,72.99
2023-01-06T15:03:59.998Z,72.65
2023-01-06T15:06:21.472Z,72.81
2023-01-06T15:08:24.023Z,73.00
2023-01-06T15:10:28.362Z,72.76
2023-01-06T15:12:33.022Z,72.71
2023-01-06T15:14:35.626Z,72.94
2023-01-06T15:16:41.316Z,72.84
2023-01-06T15:18:46.405Z,72.70
2023-01-06T15:20:49.033Z,72.67
2023-01-06T15:22:53.699Z,72.73
2023-01-06T15:24:56.813Z,73.01
2023-01-06T15:27:07.771Z,72.87
2023-01-06T15:29:17.213Z,72.53
2023-01-06T15:31:27.339Z,72.90
2023-01-06T15:33:38.992Z,72.41
2023-01-06T15:35:43.413Z,72.96
2023-01-06T15:37:48.707Z,72.51
2023-01-06T15:39:52.387Z,72.57
2023-01-06T15:41:56.428Z,72.17
2023-01-06T15:44:02.718Z,72.15
2023-01-06T15:46:10.171Z,72.32
2023-01-06T15:48:19.548Z,72.28
2023-01-06T15:50:28.819Z,71.99
2023-01-06T15:52:39.226Z,72.00
2023-01-06T15:54:45.782Z,72.35
2023-01-06T15:56:48.472Z,71.80
2023-01-06T15:58:53.041Z,72.23
2023-01-06T16:01:17.402Z,72.60
2023-01-06T16:03:23.082Z,72.72
2023-01-06T16:05:41.235Z,72.27
2023-01-06T16:07:45.699Z,72.54
2023-01-06T16:09:48.411Z,72.76
2023-01-06T16:12:16.557Z,72.52
2023-01-06T16:14:38.003Z,72.58
2023-01-06T16:16:40.848Z,72.14
2023-01-06T16:18:44.723Z,72.35
2023-01-06T16:20:49.668Z,72.54
2023-01-06T16:22:55.334Z,72.33
2023-01-06T16:25:00.673Z,71.98
2023-01-06T16:27:05.991Z,72.46
2023-01-06T16:29:29.526Z,72.68
2023-01-06T16:31:35.223Z,72.44
2023-01-06T16:33:44.463Z,72.99
2023-01-06T16:35:52.450Z,72.59
2023-01-06T16:37:55.248Z,72.37
2023-01-06T16:40:00.729Z,72.77
2023-01-06T16:42:26.002Z,72.31
2023-01-06T16:44:31.197Z,72.57
2023-01-06T16:46:33.928Z,72.50
2023-01-06T16:48:42.835Z,72.72
2023-01-06T16:50:50.827Z,73.01
2023-01-06T16:53:09.933Z,72.68
2023-01-06T16:55:15.062Z,72.76
2023-01-06T16:57:17.790Z,72.52
2023-01-06T16:59:22.441Z,72.42
2023-01-06T17:01:26.996Z,72.29
2023-01-06T17:03:31.663Z,73.02
2023-01-06T17:05:35.371Z,73.18
2023-01-06T17:07:38.092Z,72.13
2023-01-06T17:09:45.828Z,72.65
2023-01-06T17:11:53.004Z,73.22
2023-01-06T17:14:01.036Z,73.66
2023-01-06T17:16:31.350Z,73.12
2023-01-06T17:18:34.460Z,73.62
2023-01-06T17:20:37.124Z,72.90
2023-01-06T17:22:39.846Z,73.52
2023-01-06T17:24:42.472Z,72.98
2023-01-06T17:27:08.022Z,73.16
2023-01-06T17:29:16.409Z,72.74
2023-01-06T17:31:31.101Z,72.47
2023-01-06T17:33:33.983Z,72.72
2023-01-06T17:35:36.627Z,72.52
2023-01-06T17:37:39.254Z,72.84
2023-01-06T17:39:44.796Z,72.95
2023-01-06T17:41:47.543Z,73.10
2023-01-06T17:43:50.288Z,73.47
2023-01-06T17:45:53.452Z,73.52
2023-01-06T17:47:57.304Z,72.89
2023-01-06T17:50:01.750Z,72.96
2023-01-06T17:52:40.254Z,72.92
2023-01-06T17:55:08.685Z,73.47
2023-01-06T17:57:19.682Z,73.26
2023-01-06T17:59:22.305Z,73.64
2023-01-06T18:01:29.142Z,73.18
2023-01-06T18:03:33.869Z,73.76
2023-01-06T18:05:36.412Z,73.91
2023-01-06T18:07:39.497Z,73.64
2023-01-06T18:09:42.225Z,73.94
2023-01-06T18:11:50.355Z,73.89
2023-01-06T18:13:53.848Z,73.71
2023-01-06T18:16:07.262Z,73.62
2023-01-06T18:18:28.999Z,74.24
2023-01-06T18:20:31.625Z,73.88
2023-01-06T18:22:35.719Z,74.08
2023-01-06T18:24:40.848Z,73.44
2023-01-06T18:26:58.176Z,73.88
2023-01-06T18:29:13.189Z,73.38
2023-01-06T18:31:17.593Z,73.56
2023-01-06T18:33:20.924Z,74.12
2023-01-06T18:35:27.849Z,74.17
2023-01-06T18:37:33.617Z,74.20
2023-01-06T18:39:41.990Z,74.25
2023-01-06T18:41:44.577Z,73.72
2023-01-06T18:43:47.195Z,73.50
2023-01-06T18:45:53.432Z,74.11
2023-01-06T18:48:00.852Z,73.61
2023-01-06T18:50:28.100Z,74.29
2023-01-06T18:52:44.466Z,73.69
2023-01-06T18:54:48.404Z,74.17
2023-01-06T18:56:52.442Z,73.75
2023-01-06T18:58:57.759Z,74.74
2023-01-06T19:01:03.646Z,74.00
2023-01-06T19:03:39.213Z,74.36
2023-01-06T19:05:43.246Z,74.16
2023-01-06T19:07:45.931Z,74.08
2023-01-06T19:09:50.173Z,74.28
2023-01-06T19:12:21.440Z,73.86
2023-01-06T19:14:24.165Z,74.38
2023-01-06T19:16:58.842Z,74.93
2023-01-06T19:19:19.258Z,74.84
2023-01-06T19:21:23.084Z,74.13
2023-01-06T19:23:28.060Z,74.23
2023-01-06T19:25:44.411Z,74.18
2023-01-06T19:27:55.974Z,74.93
2023-01-06T19:30:30.039Z,74.47
2023-01-06T19:32:36.395Z,74.39
2023-01-06T19:34:39.167Z,74.74
2023-01-06T19:36:59.985Z,74.58
2023-01-06T19:39:20.230Z,74.42
2023-01-06T19:41:34.073Z,73.64
2023-01-06T19:43:36.710Z,73.40
2023-01-06T19:45:39.348Z,73.83
2023-01-06T19:47:42.319Z,73.83
2023-01-06T19:49:50.003Z,73.17
2023-01-06T19:51:54.844Z,73.38
2023-01-06T19:54:03.723Z,73.61
2023-01-06T19:56:18.033Z,73.79
2023-01-06T19:58:34.140Z,73.61
2023-01-06T20:00:47.277Z,73.11
2023-01-06T20:02:51.854Z,73.36
2023-01-06T20:04:54.776Z,72.89
2023-01-06T20:06:57.427Z,73.06
2023-01-06T20:09:00.062Z,73.69
2023-01-06T20:11:02.700Z,73.80
2023-01-06T20:13:06.133Z,73.33
2023-01-06T20:15:09.352Z,73.96
2023-01-06T20:17:12.755Z,73.21
2023-01-06T20:19:16.156Z,73.13
2023-01-06T20:21:18.907Z,74.01
2023-01-06T20:23:21.705Z,73.89
2023-01-06T20:25:24.383Z,72.97
2023-01-06T20:27:27.055Z,73.65
2023-01-06T20:29:29.638Z,73.58
2023-01-06T20:31:32.692Z,73.82
2023-01-06T20:33:35.369Z,72.78
2023-01-06T20:35:38.352Z,72.93
2023-01-06T20:37:41.127Z,72.71
2023-01-06T20:39:43.721Z,72.32
2023-01-06T20:41:46.495Z,72.81
2023-01-06T20:43:49.074Z,72.64
2023-01-06T20:45:51.819Z,72.78
2023-01-06T20:47:54.469Z,72.06
2023-01-06T20:49:57.214Z,71.87
2023-01-06T20:51:59.812Z,72.22
2023-01-06T20:54:02.454Z,72.13
2023-01-06T20:56:05.493Z,71.65
2023-01-06T20:58:08.190Z,72.58
2023-01-06T21:00:12.219Z,72.27
2023-01-06T21:02:14.955Z,71.38
2023-01-06T21:04:17.773Z,72.21
2023-01-06T21:06:20.518Z,71.61
2023-01-06T21:08:23.159Z,72.38
2023-01-06T21:10:26.298Z,72.18
2023-01-06T21:12:28.941Z,72.09
2023-01-06T21:14:32.471Z,72.25
2023-01-06T21:16:35.173Z,71.43
2023-01-06T21:18:37.822Z,71.81
2023-01-06T21:20:40.561Z,72.40
2023-01-06T21:22:43.117Z,72.88
2023-01-06T21:24:45.744Z,72.37
2023-01-06T21:26:48.491Z,72.41
2023-01-06T21:28:51.071Z,72.44
2023-01-06T21:30:53.937Z,72.58
2023-01-06T21:32:56.551Z,72.00
2023-01-06T21:34:59.136Z,71.67
2023-01-06T21:37:01.817Z,71.39
2023-01-06T21:39:07.452Z,71.51
2023-01-06T21:41:28.703Z,71.51
2023-01-06T21:43:31.302Z,71.55
2023-01-06T21:45:33.999Z,71.47
2023-01-06T21:47:36.594Z,72.08
2023-01-06T21:49:42.583Z,72.09
2023-01-06T21:51:47.480Z,71.33
2023-01-06T21:53:50.082Z,71.84
2023-01-06T21:55:54.819Z,71.68
2023-01-06T21:57:57.698Z,71.96
2023-01-06T22:00:00.303Z,71.01
2023-01-06T22:02:03.284Z,71.29
2023-01-06T22:04:05.996Z,72.13
2023-01-06T22:06:09.949Z,71.44
2023-01-06T22:08:13.363Z,71.10
2023-01-06T22:10:19.007Z,71.10
2023-01-06T22:12:22.045Z,71.87
2023-01-06T22:14:25.749Z,71.19
2023-01-06T22:16:28.675Z,71.82
2023-01-06T22:18:33.053Z,71.19
2023-01-06T22:20:36.469Z,72.13
2023-01-06T22:22:40.167Z,72.10
2023-01-06T22:24:42.915Z,71.96
2023-01-06T22:26:45.671Z,71.29
2023-01-06T22:28:48.310Z,71.34
2023-01-06T22:30:52.900Z,71.76
2023-01-06T22:32:55.616Z,71.74
2023-01-06T22:34:58.187Z,71.53
2023-01-06T22:37:00.968Z,72.28
2023-01-06T22:39:04.304Z,72.44
2023-01-06T22:41:07.699Z,71.71
2023-01-06T22:43:10.348Z,71.94
2023-01-06T22:45:13.426Z,72.56
2023-01-06T22:47:16.180Z,71.95
2023-01-06T22:49:18.790Z,72.06
2023-01-06T22:51:21.444Z,72.17
2023-01-06T22:53:24.066Z,71.38
2023-01-06T22:55:26.659Z,71.45
2023-01-06T22:57:29.443Z,72.01
2023-01-06T22:59:32.128Z,71.40
2023-01-06T23:01:34.841Z,71.40
2023-01-06T23:03:37.862Z,72.05
2023-01-06T23:05:40.547Z,71.49
2023-01-06T23:07:44.253Z,72.07
2023-01-06T23:09:46.921Z,71.79
2023-01-06T23:11:49.741Z,71.60
2023-01-06T23:13:55.571Z,72.06
2023-01-06T23:16:10.372Z,72.08
2023-01-06T23:18:13.200Z,72.59
2023-01-06T23:20:15.885Z,72.65
2023-01-06T23:22:18.562Z,72.89
2023-01-06T23:24:21.195Z,72.62
2023-01-06T23:26:29.925Z,72.43
2023-01-06T23:28:33.161Z,72.75
2023-01-06T23:30:35.716Z,72.83
2023-01-06T23:32:38.355Z,72.77
2023-01-06T23:34:40.905Z,72.34
2023-01-06T23:36:44.113Z,73.31
2023-01-06T23:38:47.315Z,72.92
2023-01-06T23:40:49.978Z,72.63
2023-01-06T23:42:54.127Z,72.41
2023-01-06T23:44:56.785Z,73.23
2023-01-06T23:46:59.451Z,72.87
2023-01-06T23:49:02.293Z,72.65
2023-01-06T23:51:06.326Z,73.72
2023-01-06T23:53:08.945Z,73.32
2023-01-06T23:55:11.814Z,73.66
2023-01-06T23:57:16.341Z,73.62
2023-01-06T23:59:19.096Z,73.13
